sensor_id;sensor_type;location;lat;lon;timestamp;pressure;altitude;pressure_sealevel;temperature;humidity
4012;BME280;2020;48.682;9.024;2022-08-01T00:00:27;96514.84;;;19.72;54.55
4012;BME280;2020;48.682;9.024;2022-08-01T00:02:53;96513.38;;;19.76;54.59
4012;BME280;2020;48.682;9.024;2022-08-01T00:05:18;96509.56;;;19.72;54.46
4012;BME280;2020;48.682;9.024;2022-08-01T00:07:43;96510.84;;;19.63;54.97
4012;BME280;2020;48.682;9.024;2022-08-01T00:10:11;96516.53;;;19.60;54.58
4012;BME280;2020;48.682;9.024;2022-08-01T00:12:37;96507.59;;;19.61;55.39
4012;BME280;2020;48.682;9.024;2022-08-01T00:15:04;96520.56;;;19.62;55.36
4012;BME280;2020;48.682;9.024;2022-08-01T00:17:30;96521.88;;;19.46;55.04
4012;BME280;2020;48.682;9.024;2022-08-01T00:19:56;96527.16;;;19.46;55.67
4012;BME280;2020;48.682;9.024;2022-08-01T00:22:21;96519.06;;;19.41;55.17
4012;BME280;2020;48.682;9.024;2022-08-01T00:24:46;96524.69;;;19.51;55.57
4012;BME280;2020;48.682;9.024;2022-08-01T00:27:11;96522.69;;;19.47;55.58
4012;BME280;2020;48.682;9.024;2022-08-01T00:29:37;96526.44;;;19.25;55.35
4012;BME280;2020;48.682;9.024;2022-08-01T00:32:02;96526.47;;;19.12;56.39
4012;BME280;2020;48.682;9.024;2022-08-01T00:34:27;96532.53;;;19.19;56.81
4012;BME280;2020;48.682;9.024;2022-08-01T00:36:53;96529.28;;;19.17;56.95
4012;BME280;2020;48.682;9.024;2022-08-01T00:39:18;96533.78;;;19.10;56.42
4012;BME280;2020;48.682;9.024;2022-08-01T00:41:43;96533.41;;;18.99;56.78
4012;BME280;2020;48.682;9.024;2022-08-01T00:44:08;96530.97;;;19.05;57.31
4012;BME280;2020;48.682;9.024;2022-08-01T00:46:34;96524.91;;;18.97;56.79
4012;BME280;2020;48.682;9.024;2022-08-01T00:49:00;96532.19;;;18.89;57.97
4012;BME280;2020;48.682;9.024;2022-08-01T00:51:26;96528.97;;;18.87;57.52
4012;BME280;2020;48.682;9.024;2022-08-01T00:53:52;96529.00;;;18.73;58.18
4012;BME280;2020;48.682;9.024;2022-08-01T00:56:24;96534.25;;;18.80;57.77
4012;BME280;2020;48.682;9.024;2022-08-01T00:58:50;96531.41;;;18.75;57.75
4012;BME280;2020;48.682;9.024;2022-08-01T01:01:15;96532.22;;;18.82;57.25
4012;BME280;2020;48.682;9.024;2022-08-01T01:03:41;96536.47;;;18.83;57.43
4012;BME280;2020;48.682;9.024;2022-08-01T01:06:48;96525.16;;;18.69;57.70
4012;BME280;2020;48.682;9.024;2022-08-01T01:09:15;96526.16;;;18.61;57.96
4012;BME280;2020;48.682;9.024;2022-08-01T01:17:29;96535.91;;;18.54;58.80
4012;BME280;2020;48.682;9.024;2022-08-01T01:19:59;96532.66;;;18.52;58.09
4012;BME280;2020;48.682;9.024;2022-08-01T01:22:36;96539.16;;;18.56;58.12
4012;BME280;2020;48.682;9.024;2022-08-01T01:25:09;96537.53;;;18.55;58.06
4012;BME280;2020;48.682;9.024;2022-08-01T01:27:51;96539.97;;;18.50;58.42
4012;BME280;2020;48.682;9.024;2022-08-01T01:30:23;96542.59;;;18.50;57.96
4012;BME280;2020;48.682;9.024;2022-08-01T01:32:52;96537.94;;;18.45;58.96
4012;BME280;2020;48.682;9.024;2022-08-01T01:35:24;96541.19;;;18.40;58.70
4012;BME280;2020;48.682;9.024;2022-08-01T01:37:56;96539.13;;;18.49;58.40
4012;BME280;2020;48.682;9.024;2022-08-01T01:40:23;96546.25;;;18.35;59.86
4012;BME280;2020;48.682;9.024;2022-08-01T01:42:50;96540.38;;;18.33;59.29
4012;BME280;2020;48.682;9.024;2022-08-01T01:45:17;96541.19;;;18.27;59.99
4012;BME280;2020;48.682;9.024;2022-08-01T01:47:44;96540.19;;;18.28;59.41
4012;BME280;2020;48.682;9.024;2022-08-01T01:50:11;96546.06;;;18.30;59.28
4012;BME280;2020;48.682;9.024;2022-08-01T01:52:39;96542.59;;;18.36;59.86
4012;BME280;2020;48.682;9.024;2022-08-01T01:55:06;96545.66;;;18.33;59.26
4012;BME280;2020;48.682;9.024;2022-08-01T01:57:36;96547.66;;;18.31;59.63
4012;BME280;2020;48.682;9.024;2022-08-01T02:00:03;96540.78;;;18.30;59.84
4012;BME280;2020;48.682;9.024;2022-08-01T02:02:29;96537.94;;;18.25;59.86
4012;BME280;2020;48.682;9.024;2022-08-01T02:04:55;96538.75;;;18.19;59.88
4012;BME280;2020;48.682;9.024;2022-08-01T02:07:24;96540.16;;;18.15;60.91
4012;BME280;2020;48.682;9.024;2022-08-01T02:09:51;96534.91;;;18.15;60.91
4012;BME280;2020;48.682;9.024;2022-08-01T02:12:19;96539.56;;;18.12;60.53
4012;BME280;2020;48.682;9.024;2022-08-01T02:14:48;96542.38;;;18.04;61.36
4012;BME280;2020;48.682;9.024;2022-08-01T02:17:16;96545.78;;;17.98;61.45
4012;BME280;2020;48.682;9.024;2022-08-01T02:19:42;96548.06;;;18.01;61.19
4012;BME280;2020;48.682;9.024;2022-08-01T02:22:10;96545.19;;;17.96;61.94
4012;BME280;2020;48.682;9.024;2022-08-01T02:24:52;96547.22;;;17.94;61.62
4012;BME280;2020;48.682;9.024;2022-08-01T02:27:30;96549.22;;;17.92;61.19
4012;BME280;2020;48.682;9.024;2022-08-01T02:30:01;96541.50;;;17.83;61.60
4012;BME280;2020;48.682;9.024;2022-08-01T02:32:36;96546.72;;;17.70;62.32
4012;BME280;2020;48.682;9.024;2022-08-01T02:35:02;96540.47;;;17.71;61.84
4012;BME280;2020;48.682;9.024;2022-08-01T02:37:31;96551.19;;;17.76;62.20
4012;BME280;2020;48.682;9.024;2022-08-01T02:39:59;96548.78;;;17.75;62.27
4012;BME280;2020;48.682;9.024;2022-08-01T02:42:26;96550.97;;;17.71;62.39
4012;BME280;2020;48.682;9.024;2022-08-01T02:44:53;96544.69;;;17.59;62.47
4012;BME280;2020;48.682;9.024;2022-08-01T02:47:20;96550.97;;;17.71;62.77
4012;BME280;2020;48.682;9.024;2022-08-01T02:49:50;96551.19;;;17.69;62.75
4012;BME280;2020;48.682;9.024;2022-08-01T02:52:17;96553.25;;;17.81;62.24
4012;BME280;2020;48.682;9.024;2022-08-01T02:54:45;96559.72;;;17.78;62.32
4012;BME280;2020;48.682;9.024;2022-08-01T02:57:12;96553.22;;;17.74;62.17
4012;BME280;2020;48.682;9.024;2022-08-01T02:59:39;96564.56;;;17.81;61.77
4012;BME280;2020;48.682;9.024;2022-08-01T03:02:06;96551.88;;;17.92;61.76
4012;BME280;2020;48.682;9.024;2022-08-01T03:04:34;96554.88;;;17.89;62.30
4012;BME280;2020;48.682;9.024;2022-08-01T03:07:02;96555.56;;;18.04;61.86
4012;BME280;2020;48.682;9.024;2022-08-01T03:09:30;96546.03;;;18.10;62.64
4012;BME280;2020;48.682;9.024;2022-08-01T03:12:00;96542.78;;;18.01;62.74
4012;BME280;2020;48.682;9.024;2022-08-01T03:14:27;96545.22;;;18.09;62.92
4012;BME280;2020;48.682;9.024;2022-08-01T03:16:54;96554.53;;;18.05;62.20
4012;BME280;2020;48.682;9.024;2022-08-01T03:19:23;96550.50;;;18.09;62.52
4012;BME280;2020;48.682;9.024;2022-08-01T03:21:50;96552.72;;;18.12;62.95
4012;BME280;2020;48.682;9.024;2022-08-01T03:24:18;96551.31;;;18.17;62.43
4012;BME280;2020;48.682;9.024;2022-08-01T03:26:44;96558.59;;;18.15;62.58
4012;BME280;2020;48.682;9.024;2022-08-01T03:29:16;96557.59;;;18.16;60.90
4012;BME280;2020;48.682;9.024;2022-08-01T03:31:44;96554.97;;;18.16;62.29
4012;BME280;2020;48.682;9.024;2022-08-01T03:34:11;96560.44;;;18.07;62.88
4012;BME280;2020;48.682;9.024;2022-08-01T03:36:48;96559.41;;;18.15;61.44
4012;BME280;2020;48.682;9.024;2022-08-01T03:39:16;96552.09;;;18.04;62.26
4012;BME280;2020;48.682;9.024;2022-08-01T03:41:46;96558.59;;;18.08;61.55
4012;BME280;2020;48.682;9.024;2022-08-01T03:44:15;96560.38;;;17.94;62.20
4012;BME280;2020;48.682;9.024;2022-08-01T03:46:47;96559.38;;;17.95;62.71
4012;BME280;2020;48.682;9.024;2022-08-01T03:49:21;96556.69;;;17.88;62.58
4012;BME280;2020;48.682;9.024;2022-08-01T03:51:49;96558.50;;;17.81;63.41
4012;BME280;2020;48.682;9.024;2022-08-01T03:54:24;96560.50;;;17.72;64.50
4012;BME280;2020;48.682;9.024;2022-08-01T03:56:51;96556.84;;;17.66;65.06
4012;BME280;2020;48.682;9.024;2022-08-01T03:59:18;96552.38;;;17.67;65.28
4012;BME280;2020;48.682;9.024;2022-08-01T04:01:45;96558.84;;;17.58;65.84
4012;BME280;2020;48.682;9.024;2022-08-01T04:04:11;96559.25;;;17.54;65.41
4012;BME280;2020;48.682;9.024;2022-08-01T04:06:38;96557.59;;;17.47;65.17
4012;BME280;2020;48.682;9.024;2022-08-01T04:09:03;96557.19;;;17.43;65.75
4012;BME280;2020;48.682;9.024;2022-08-01T04:11:29;96552.34;;;17.47;65.91
4012;BME280;2020;48.682;9.024;2022-08-01T04:13:55;96555.16;;;17.38;66.64
4012;BME280;2020;48.682;9.024;2022-08-01T04:16:21;96564.44;;;17.41;65.89
4012;BME280;2020;48.682;9.024;2022-08-01T04:18:47;96561.19;;;17.32;66.28
4012;BME280;2020;48.682;9.024;2022-08-01T04:21:13;96566.03;;;17.29;66.54
4012;BME280;2020;48.682;9.024;2022-08-01T04:23:41;96563.59;;;17.27;67.33
4012;BME280;2020;48.682;9.024;2022-08-01T04:26:08;96570.44;;;17.21;67.22
4012;BME280;2020;48.682;9.024;2022-08-01T04:28:36;96576.16;;;17.32;67.04
4012;BME280;2020;48.682;9.024;2022-08-01T04:31:06;96584.59;;;17.20;66.90
4012;BME280;2020;48.682;9.024;2022-08-01T04:33:35;96589.06;;;17.27;67.28
4012;BME280;2020;48.682;9.024;2022-08-01T04:36:03;96580.78;;;17.30;67.45
4012;BME280;2020;48.682;9.024;2022-08-01T04:38:30;96587.06;;;17.29;67.54
4012;BME280;2020;48.682;9.024;2022-08-01T04:40:57;96585.81;;;17.24;66.75
4012;BME280;2020;48.682;9.024;2022-08-01T04:43:22;96582.88;;;17.41;67.49
4012;BME280;2020;48.682;9.024;2022-08-01T04:45:48;96581.03;;;17.35;67.50
4012;BME280;2020;48.682;9.024;2022-08-01T04:48:17;96591.88;;;17.18;68.21
4012;BME280;2020;48.682;9.024;2022-08-01T04:50:42;96586.28;;;17.35;67.41
4012;BME280;2020;48.682;9.024;2022-08-01T04:53:16;96583.06;;;17.39;67.60
4012;BME280;2020;48.682;9.024;2022-08-01T04:55:45;96575.38;;;17.38;67.97
4012;BME280;2020;48.682;9.024;2022-08-01T04:58:11;96583.47;;;17.43;67.64
4012;BME280;2020;48.682;9.024;2022-08-01T05:00:37;96586.50;;;17.40;67.69
4012;BME280;2020;48.682;9.024;2022-08-01T05:03:02;96576.25;;;17.59;67.35
4012;BME280;2020;48.682;9.024;2022-08-01T05:05:27;96575.47;;;17.65;67.43
4012;BME280;2020;48.682;9.024;2022-08-01T05:07:53;96579.50;;;17.54;67.88
4012;BME280;2020;48.682;9.024;2022-08-01T05:10:18;96581.56;;;17.72;67.16
4012;BME280;2020;48.682;9.024;2022-08-01T05:12:43;96577.69;;;17.68;67.26
4012;BME280;2020;48.682;9.024;2022-08-01T05:15:08;96568.66;;;17.84;66.45
4012;BME280;2020;48.682;9.024;2022-08-01T05:17:34;96570.66;;;17.89;65.71
4012;BME280;2020;48.682;9.024;2022-08-01T05:19:59;96567.50;;;18.07;65.53
4012;BME280;2020;48.682;9.024;2022-08-01T05:22:24;96567.50;;;18.00;64.17
4012;BME280;2020;48.682;9.024;2022-08-01T05:24:51;96561.66;;;18.11;65.30
4012;BME280;2020;48.682;9.024;2022-08-01T05:27:16;96565.09;;;18.19;65.82
4012;BME280;2020;48.682;9.024;2022-08-01T05:29:41;96576.03;;;18.29;63.50
4012;BME280;2020;48.682;9.024;2022-08-01T05:32:07;96570.34;;;18.25;64.50
4012;BME280;2020;48.682;9.024;2022-08-01T05:34:32;96571.16;;;18.33;65.13
4012;BME280;2020;48.682;9.024;2022-08-01T05:36:58;96572.59;;;18.35;64.93
4012;BME280;2020;48.682;9.024;2022-08-01T05:39:23;96562.06;;;18.49;63.39
4012;BME280;2020;48.682;9.024;2022-08-01T05:41:48;96574.63;;;18.60;64.04
4012;BME280;2020;48.682;9.024;2022-08-01T05:44:14;96569.13;;;18.68;64.79
4012;BME280;2020;48.682;9.024;2022-08-01T05:46:40;96571.94;;;18.87;64.48
4012;BME280;2020;48.682;9.024;2022-08-01T05:49:05;96571.94;;;19.00;64.32
4012;BME280;2020;48.682;9.024;2022-08-01T05:51:31;96570.72;;;19.10;64.19
4012;BME280;2020;48.682;9.024;2022-08-01T05:53:57;96576.34;;;19.20;62.67
4012;BME280;2020;48.682;9.024;2022-08-01T05:56:22;96577.72;;;19.43;61.06
4012;BME280;2020;48.682;9.024;2022-08-01T05:58:51;96581.50;;;19.61;62.18
4012;BME280;2020;48.682;9.024;2022-08-01T06:01:18;96581.44;;;19.74;61.72
4012;BME280;2020;48.682;9.024;2022-08-01T06:03:43;96578.16;;;19.79;62.50
4012;BME280;2020;48.682;9.024;2022-08-01T06:06:08;96580.72;;;19.99;61.29
4012;BME280;2020;48.682;9.024;2022-08-01T06:08:34;96585.75;;;20.07;60.85
4012;BME280;2020;48.682;9.024;2022-08-01T06:10:59;96576.53;;;20.16;60.28
4012;BME280;2020;48.682;9.024;2022-08-01T06:13:25;96581.19;;;20.21;60.07
4012;BME280;2020;48.682;9.024;2022-08-01T06:15:50;96580.81;;;20.17;59.33
4012;BME280;2020;48.682;9.024;2022-08-01T06:18:16;96580.84;;;20.43;59.03
4012;BME280;2020;48.682;9.024;2022-08-01T06:20:41;96576.41;;;20.62;58.23
4012;BME280;2020;48.682;9.024;2022-08-01T06:23:07;96583.91;;;20.91;58.13
4012;BME280;2020;48.682;9.024;2022-08-01T06:25:33;96575.97;;;21.09;57.41
4012;BME280;2020;48.682;9.024;2022-08-01T06:27:58;96576.28;;;21.19;56.91
4012;BME280;2020;48.682;9.024;2022-08-01T06:30:24;96581.56;;;21.19;57.13
4012;BME280;2020;48.682;9.024;2022-08-01T06:32:49;96581.94;;;21.04;57.00
4012;BME280;2020;48.682;9.024;2022-08-01T06:35:14;96581.94;;;21.23;57.05
4012;BME280;2020;48.682;9.024;2022-08-01T06:37:40;96579.75;;;21.39;56.11
4012;BME280;2020;48.682;9.024;2022-08-01T06:40:08;96573.13;;;21.48;55.84
4012;BME280;2020;48.682;9.024;2022-08-01T06:42:34;96573.56;;;21.45;55.31
4012;BME280;2020;48.682;9.024;2022-08-01T06:45:06;96571.78;;;21.57;55.32
4012;BME280;2020;48.682;9.024;2022-08-01T06:47:32;96573.16;;;21.79;54.83
4012;BME280;2020;48.682;9.024;2022-08-01T06:49:57;96578.47;;;22.09;54.65
4012;BME280;2020;48.682;9.024;2022-08-01T06:52:23;96578.06;;;22.36;53.72
4012;BME280;2020;48.682;9.024;2022-08-01T06:54:48;96583.31;;;22.55;52.88
4012;BME280;2020;48.682;9.024;2022-08-01T06:57:13;96571.28;;;22.52;53.35
4012;BME280;2020;48.682;9.024;2022-08-01T06:59:39;96582.16;;;22.62;53.54
4012;BME280;2020;48.682;9.024;2022-08-01T07:02:04;96568.88;;;22.74;53.68
4012;BME280;2020;48.682;9.024;2022-08-01T07:04:30;96578.22;;;23.01;52.20
4012;BME280;2020;48.682;9.024;2022-08-01T07:06:56;96581.09;;;22.99;52.44
4012;BME280;2020;48.682;9.024;2022-08-01T07:09:21;96576.63;;;23.24;51.62
4012;BME280;2020;48.682;9.024;2022-08-01T07:11:46;96573.84;;;23.30;51.87
4012;BME280;2020;48.682;9.024;2022-08-01T07:14:12;96576.22;;;23.44;52.06
4012;BME280;2020;48.682;9.024;2022-08-01T07:16:37;96569.88;;;23.45;51.47
4012;BME280;2020;48.682;9.024;2022-08-01T07:19:02;96574.28;;;23.68;50.86
4012;BME280;2020;48.682;9.024;2022-08-01T07:21:27;96569.88;;;23.74;50.32
4012;BME280;2020;48.682;9.024;2022-08-01T07:23:53;96579.38;;;23.70;50.50
4012;BME280;2020;48.682;9.024;2022-08-01T07:26:18;96575.13;;;23.69;49.33
4012;BME280;2020;48.682;9.024;2022-08-01T07:28:43;96578.97;;;23.90;49.61
4012;BME280;2020;48.682;9.024;2022-08-01T07:31:09;96583.66;;;24.00;49.96
4012;BME280;2020;48.682;9.024;2022-08-01T07:33:34;96577.19;;;23.95;49.27
4012;BME280;2020;48.682;9.024;2022-08-01T07:35:59;96573.88;;;24.17;49.01
4012;BME280;2020;48.682;9.024;2022-08-01T07:38:25;96574.38;;;24.31;49.49
4012;BME280;2020;48.682;9.024;2022-08-01T07:40:50;96574.50;;;24.24;48.53
4012;BME280;2020;48.682;9.024;2022-08-01T07:43:15;96572.03;;;24.35;48.45
4012;BME280;2020;48.682;9.024;2022-08-01T07:45:41;96574.84;;;24.28;49.03
4012;BME280;2020;48.682;9.024;2022-08-01T07:48:07;96580.78;;;24.18;49.12
4012;BME280;2020;48.682;9.024;2022-08-01T07:50:33;96568.63;;;24.22;49.20
4012;BME280;2020;48.682;9.024;2022-08-01T07:52:58;96573.66;;;24.53;48.60
4012;BME280;2020;48.682;9.024;2022-08-01T07:55:24;96568.31;;;24.36;48.82
4012;BME280;2020;48.682;9.024;2022-08-01T07:57:50;96567.09;;;24.27;49.48
4012;BME280;2020;48.682;9.024;2022-08-01T08:00:16;96575.09;;;23.98;50.04
4012;BME280;2020;48.682;9.024;2022-08-01T08:02:41;96570.66;;;24.32;49.85
4012;BME280;2020;48.682;9.024;2022-08-01T08:05:07;96567.75;;;24.68;48.60
4012;BME280;2020;48.682;9.024;2022-08-01T08:07:33;96570.31;;;24.97;47.36
4012;BME280;2020;48.682;9.024;2022-08-01T08:09:58;96571.94;;;24.98;48.32
4012;BME280;2020;48.682;9.024;2022-08-01T08:12:24;96566.94;;;24.67;47.97
4012;BME280;2020;48.682;9.024;2022-08-01T08:14:50;96566.31;;;24.60;48.51
4012;BME280;2020;48.682;9.024;2022-08-01T08:17:15;96567.75;;;24.51;48.50
4012;BME280;2020;48.682;9.024;2022-08-01T08:19:40;96567.91;;;24.61;48.28
4012;BME280;2020;48.682;9.024;2022-08-01T08:22:07;96571.88;;;24.59;48.16
4012;BME280;2020;48.682;9.024;2022-08-01T08:24:32;96563.91;;;24.59;48.36
4012;BME280;2020;48.682;9.024;2022-08-01T08:26:59;96567.06;;;24.56;48.45
4012;BME280;2020;48.682;9.024;2022-08-01T08:29:25;96561.47;;;24.40;49.54
4012;BME280;2020;48.682;9.024;2022-08-01T08:31:54;96557.78;;;24.75;48.87
4012;BME280;2020;48.682;9.024;2022-08-01T08:34:20;96559.41;;;24.76;48.88
4012;BME280;2020;48.682;9.024;2022-08-01T08:36:45;96557.03;;;24.97;47.67
4012;BME280;2020;48.682;9.024;2022-08-01T08:39:11;96552.94;;;25.11;47.61
4012;BME280;2020;48.682;9.024;2022-08-01T08:41:36;96540.38;;;25.29;47.73
4012;BME280;2020;48.682;9.024;2022-08-01T08:44:03;96545.34;;;25.92;46.28
4012;BME280;2020;48.682;9.024;2022-08-01T08:46:28;96546.59;;;26.12;44.72
4012;BME280;2020;48.682;9.024;2022-08-01T08:48:55;96546.78;;;26.05;44.12
4012;BME280;2020;48.682;9.024;2022-08-01T08:51:23;96551.69;;;25.86;44.75
4012;BME280;2020;48.682;9.024;2022-08-01T08:53:49;96550.13;;;25.63;45.91
4012;BME280;2020;48.682;9.024;2022-08-01T08:56:17;96549.28;;;25.62;45.79
4012;BME280;2020;48.682;9.024;2022-08-01T08:58:45;96549.03;;;25.41;46.02
4012;BME280;2020;48.682;9.024;2022-08-01T09:01:10;96547.88;;;25.32;46.44
4012;BME280;2020;48.682;9.024;2022-08-01T09:03:37;96548.75;;;25.16;46.14
4012;BME280;2020;48.682;9.024;2022-08-01T09:06:03;96555.13;;;25.15;46.32
4012;BME280;2020;48.682;9.024;2022-08-01T09:08:29;96548.03;;;25.03;46.20
4012;BME280;2020;48.682;9.024;2022-08-01T09:10:54;96553.50;;;25.14;46.75
4012;BME280;2020;48.682;9.024;2022-08-01T09:13:20;96548.13;;;25.08;45.92
4012;BME280;2020;48.682;9.024;2022-08-01T09:15:54;96549.28;;;25.18;46.51
4012;BME280;2020;48.682;9.024;2022-08-01T09:18:33;96554.34;;;24.97;47.34
4012;BME280;2020;48.682;9.024;2022-08-01T09:21:19;96551.63;;;24.92;47.17
4012;BME280;2020;48.682;9.024;2022-08-01T09:23:49;96559.69;;;24.97;47.56
4012;BME280;2020;48.682;9.024;2022-08-01T09:26:17;96553.59;;;24.79;48.10
4012;BME280;2020;48.682;9.024;2022-08-01T09:28:44;96556.31;;;24.85;48.04
4012;BME280;2020;48.682;9.024;2022-08-01T09:31:12;96556.13;;;24.91;47.65
4012;BME280;2020;48.682;9.024;2022-08-01T09:33:55;96556.22;;;25.19;47.44
4012;BME280;2020;48.682;9.024;2022-08-01T09:36:23;96552.63;;;25.30;46.72
4012;BME280;2020;48.682;9.024;2022-08-01T09:38:50;96559.34;;;25.55;46.58
4012;BME280;2020;48.682;9.024;2022-08-01T09:41:16;96549.38;;;25.45;45.75
4012;BME280;2020;48.682;9.024;2022-08-01T09:43:48;96553.75;;;25.34;47.07
4012;BME280;2020;48.682;9.024;2022-08-01T09:46:14;96557.34;;;25.23;47.18
4012;BME280;2020;48.682;9.024;2022-08-01T09:49:15;96560.81;;;25.23;47.02
4012;BME280;2020;48.682;9.024;2022-08-01T09:51:51;96563.78;;;25.27;47.43
4012;BME280;2020;48.682;9.024;2022-08-01T09:54:28;96553.41;;;24.86;47.73
4012;BME280;2020;48.682;9.024;2022-08-01T09:56:53;96555.97;;;24.98;48.44
4012;BME280;2020;48.682;9.024;2022-08-01T09:59:18;96549.38;;;24.84;48.03
4012;BME280;2020;48.682;9.024;2022-08-01T10:01:48;96560.66;;;24.91;48.21
4012;BME280;2020;48.682;9.024;2022-08-01T10:04:16;96557.78;;;24.75;47.66
4012;BME280;2020;48.682;9.024;2022-08-01T10:06:44;96556.38;;;24.73;47.78
4012;BME280;2020;48.682;9.024;2022-08-01T10:09:11;96541.88;;;25.42;47.16
4012;BME280;2020;48.682;9.024;2022-08-01T10:11:37;96536.94;;;26.06;45.90
4012;BME280;2020;48.682;9.024;2022-08-01T10:14:05;96540.69;;;26.80;44.43
4012;BME280;2020;48.682;9.024;2022-08-01T10:16:32;96525.28;;;26.88;43.62
4012;BME280;2020;48.682;9.024;2022-08-01T10:18:59;96541.50;;;27.29;43.89
4012;BME280;2020;48.682;9.024;2022-08-01T10:21:27;96536.09;;;27.13;42.74
4012;BME280;2020;48.682;9.024;2022-08-01T10:23:54;96536.88;;;26.66;42.81
4012;BME280;2020;48.682;9.024;2022-08-01T10:26:20;96538.31;;;26.41;43.74
4012;BME280;2020;48.682;9.024;2022-08-01T10:28:48;96533.56;;;26.48;43.34
4012;BME280;2020;48.682;9.024;2022-08-01T10:31:13;96536.06;;;27.08;43.45
4012;BME280;2020;48.682;9.024;2022-08-01T10:33:39;96532.09;;;27.16;42.17
4012;BME280;2020;48.682;9.024;2022-08-01T10:36:06;96524.66;;;26.75;42.35
4012;BME280;2020;48.682;9.024;2022-08-01T10:38:31;96521.47;;;26.40;42.92
4012;BME280;2020;48.682;9.024;2022-08-01T10:40:59;96524.06;;;26.30;43.35
4012;BME280;2020;48.682;9.024;2022-08-01T10:43:25;96521.53;;;26.13;44.10
4012;BME280;2020;48.682;9.024;2022-08-01T10:45:50;96523.13;;;26.14;44.91
4012;BME280;2020;48.682;9.024;2022-08-01T10:50:53;96511.13;;;26.44;42.96
4012;BME280;2020;48.682;9.024;2022-08-01T10:53:22;96513.19;;;26.75;42.66
4012;BME280;2020;48.682;9.024;2022-08-01T10:58:30;96516.31;;;26.23;43.72
4012;BME280;2020;48.682;9.024;2022-08-01T11:08:58;96523.47;;;25.90;43.84
4012;BME280;2020;48.682;9.024;2022-08-01T11:11:23;96519.44;;;25.88;44.49
4012;BME280;2020;48.682;9.024;2022-08-01T11:14:05;96516.72;;;26.10;43.93
4012;BME280;2020;48.682;9.024;2022-08-01T11:16:39;96503.22;;;26.22;43.14
4012;BME280;2020;48.682;9.024;2022-08-01T11:19:06;96514.31;;;26.41;42.90
4012;BME280;2020;48.682;9.024;2022-08-01T11:27:26;96508.34;;;26.28;43.83
4012;BME280;2020;48.682;9.024;2022-08-01T11:32:55;96493.88;;;27.15;42.28
4012;BME280;2020;48.682;9.024;2022-08-01T11:35:22;96495.41;;;26.96;42.15
4012;BME280;2020;48.682;9.024;2022-08-01T11:37:55;96501.66;;;26.69;42.40
4012;BME280;2020;48.682;9.024;2022-08-01T11:40:23;96503.72;;;26.56;43.08
4012;BME280;2020;48.682;9.024;2022-08-01T11:43:16;96491.94;;;26.47;42.87
4012;BME280;2020;48.682;9.024;2022-08-01T11:45:53;96496.13;;;26.38;43.19
4012;BME280;2020;48.682;9.024;2022-08-01T11:48:26;96493.44;;;26.33;43.28
4012;BME280;2020;48.682;9.024;2022-08-01T11:50:54;96497.09;;;26.21;42.87
4012;BME280;2020;48.682;9.024;2022-08-01T11:53:19;96482.00;;;26.05;43.11
4012;BME280;2020;48.682;9.024;2022-08-01T11:55:49;96500.63;;;25.99;44.03
4012;BME280;2020;48.682;9.024;2022-08-01T11:58:20;96488.94;;;26.06;43.18
4012;BME280;2020;48.682;9.024;2022-08-01T12:00:53;96488.88;;;25.95;44.20
4012;BME280;2020;48.682;9.024;2022-08-01T12:03:30;96486.75;;;25.97;45.03
4012;BME280;2020;48.682;9.024;2022-08-01T12:05:57;96483.78;;;25.94;44.53
4012;BME280;2020;48.682;9.024;2022-08-01T12:08:31;96482.75;;;26.00;45.21
4012;BME280;2020;48.682;9.024;2022-08-01T12:11:03;96468.63;;;25.99;42.25
4012;BME280;2020;48.682;9.024;2022-08-01T12:13:42;96478.88;;;26.13;42.03
4012;BME280;2020;48.682;9.024;2022-08-01T12:16:09;96460.63;;;26.80;41.38
4012;BME280;2020;48.682;9.024;2022-08-01T12:18:40;96457.88;;;27.23;39.66
4012;BME280;2020;48.682;9.024;2022-08-01T12:21:05;96452.84;;;27.48;39.34
4012;BME280;2020;48.682;9.024;2022-08-01T12:23:30;96456.91;;;27.76;39.51
4012;BME280;2020;48.682;9.024;2022-08-01T12:25:56;96456.09;;;28.12;39.30
4012;BME280;2020;48.682;9.024;2022-08-01T12:28:21;96453.94;;;28.55;39.52
4012;BME280;2020;48.682;9.024;2022-08-01T12:30:48;96455.53;;;28.67;38.76
4012;BME280;2020;48.682;9.024;2022-08-01T12:33:17;96458.75;;;28.48;37.65
4012;BME280;2020;48.682;9.024;2022-08-01T12:35:43;96458.78;;;28.01;37.53
4012;BME280;2020;48.682;9.024;2022-08-01T12:38:17;96458.63;;;27.13;39.11
4012;BME280;2020;48.682;9.024;2022-08-01T12:40:44;96452.75;;;27.11;39.57
4012;BME280;2020;48.682;9.024;2022-08-01T12:43:16;96454.63;;;27.11;39.89
4012;BME280;2020;48.682;9.024;2022-08-01T12:45:43;96452.03;;;26.73;40.39
4012;BME280;2020;48.682;9.024;2022-08-01T12:48:11;96450.56;;;26.98;40.23
4012;BME280;2020;48.682;9.024;2022-08-01T12:50:38;96446.94;;;27.30;39.64
4012;BME280;2020;48.682;9.024;2022-08-01T12:53:04;96448.09;;;27.65;39.77
4012;BME280;2020;48.682;9.024;2022-08-01T12:55:30;96438.47;;;28.00;38.16
4012;BME280;2020;48.682;9.024;2022-08-01T12:58:11;96429.13;;;28.24;37.30
4012;BME280;2020;48.682;9.024;2022-08-01T13:00:38;96431.94;;;28.79;37.75
4012;BME280;2020;48.682;9.024;2022-08-01T13:03:10;96423.19;;;29.18;36.52
4012;BME280;2020;48.682;9.024;2022-08-01T13:05:45;96428.59;;;29.08;35.74
4012;BME280;2020;48.682;9.024;2022-08-01T13:10:41;96437.38;;;28.38;37.17
4012;BME280;2020;48.682;9.024;2022-08-01T13:13:07;96437.16;;;27.93;38.05
4012;BME280;2020;48.682;9.024;2022-08-01T13:15:35;96442.75;;;27.76;38.59
4012;BME280;2020;48.682;9.024;2022-08-01T13:18:27;96437.94;;;27.52;39.28
4012;BME280;2020;48.682;9.024;2022-08-01T13:21:17;96436.25;;;27.20;40.03
4012;BME280;2020;48.682;9.024;2022-08-01T13:24:04;96437.31;;;27.24;40.32
4012;BME280;2020;48.682;9.024;2022-08-01T13:29:07;96426.47;;;27.87;39.09
4012;BME280;2020;48.682;9.024;2022-08-01T13:31:34;96429.81;;;28.66;37.62
4012;BME280;2020;48.682;9.024;2022-08-01T13:33:59;96423.25;;;29.08;36.41
4012;BME280;2020;48.682;9.024;2022-08-01T13:36:24;96423.09;;;29.34;36.03
4012;BME280;2020;48.682;9.024;2022-08-01T13:38:52;96423.94;;;29.69;35.96
4012;BME280;2020;48.682;9.024;2022-08-01T13:41:36;96414.06;;;29.65;36.10
4012;BME280;2020;48.682;9.024;2022-08-01T13:44:01;96412.03;;;29.81;35.54
4012;BME280;2020;48.682;9.024;2022-08-01T13:46:26;96416.13;;;29.33;36.50
4012;BME280;2020;48.682;9.024;2022-08-01T13:48:52;96412.25;;;29.04;36.00
4012;BME280;2020;48.682;9.024;2022-08-01T13:51:17;96408.91;;;28.78;35.70
4012;BME280;2020;48.682;9.024;2022-08-01T13:53:42;96414.31;;;28.57;37.06
4012;BME280;2020;48.682;9.024;2022-08-01T13:56:07;96425.63;;;28.13;38.16
4012;BME280;2020;48.682;9.024;2022-08-01T13:58:33;96425.09;;;28.06;38.78